createdAt,value
2022-09-07T00:04:05.608Z,19.6
2022-09-07T00:09:06.827Z,19.54
2022-09-07T00:14:08.084Z,19.46
2022-09-07T00:19:09.829Z,19.42
2022-09-07T00:24:11.438Z,19.36
2022-09-07T00:29:13.022Z,19.28
2022-09-07T00:34:14.226Z,19.29
2022-09-07T00:39:15.512Z,19.32
2022-09-07T00:44:17.692Z,19.26
2022-09-07T00:49:19.139Z,19.2
2022-09-07T00:54:20.410Z,19.14
2022-09-07T00:59:22.167Z,19.1
2022-09-07T01:04:24.467Z,19.06
2022-09-07T01:09:25.476Z,19.04
2022-09-07T01:14:26.854Z,19.01
2022-09-07T01:19:28.103Z,19.04
2022-09-07T01:24:29.925Z,19.12
2022-09-07T01:29:31.802Z,19.12
2022-09-07T01:34:33.315Z,19.15
2022-09-07T01:39:34.854Z,19.17
2022-09-07T01:44:36.085Z,19.18
2022-09-07T01:49:37.486Z,19.19
2022-09-07T01:54:39.258Z,19.17
2022-09-07T01:59:41.055Z,19.16
2022-09-07T02:04:42.752Z,19.19
2022-09-07T02:09:44.542Z,19.2
2022-09-07T02:14:49.421Z,19.18
2022-09-07T02:19:47.875Z,19.16
2022-09-07T02:24:49.463Z,19.12
2022-09-07T02:29:51.415Z,19.11
2022-09-07T02:34:53.244Z,19.09
2022-09-07T02:39:55.093Z,19.06
2022-09-07T02:44:57.152Z,19.07
2022-09-07T02:49:59.309Z,19.14
2022-09-07T02:55:01.374Z,19.21
2022-09-07T03:00:03.038Z,19.2
2022-09-07T03:05:04.870Z,19.23
2022-09-07T03:10:06.140Z,19.21
2022-09-07T03:15:08.173Z,19.18
2022-09-07T03:20:09.245Z,19.16
2022-09-07T03:25:11.160Z,19.12
2022-09-07T03:30:12.995Z,19.12
2022-09-07T03:35:14.716Z,19.14
2022-09-07T03:40:16.652Z,19.14
2022-09-07T03:45:18.046Z,19.12
2022-09-07T03:50:19.999Z,19.14
2022-09-07T03:55:21.620Z,19.14
2022-09-07T04:00:23.309Z,19.15
2022-09-07T04:05:25.153Z,19.14
2022-09-07T04:10:26.739Z,19.14
2022-09-07T04:15:28.197Z,19.17
2022-09-07T04:20:29.927Z,19.24
2022-09-07T04:25:32.125Z,19.24
2022-09-07T04:30:33.611Z,19.23
2022-09-07T04:35:35.361Z,19.23
2022-09-07T04:40:37.354Z,19.18
2022-09-07T04:45:38.625Z,19.11
2022-09-07T04:50:39.814Z,18.98
2022-09-07T04:55:41.397Z,18.92
2022-09-07T05:00:43.117Z,18.91
2022-09-07T05:05:44.756Z,18.94
2022-09-07T05:10:46.737Z,18.91
2022-09-07T05:15:48.853Z,18.92
2022-09-07T05:20:50.873Z,18.94
2022-09-07T05:25:52.218Z,19.01
2022-09-07T05:35:55.750Z,19.07
2022-09-07T05:40:57.043Z,19.12
2022-09-07T05:45:59.068Z,19.29
2022-09-07T05:51:00.271Z,19.45
2022-09-07T05:56:06.530Z,19.51
2022-09-07T06:01:04.372Z,19.56
2022-09-07T06:06:05.590Z,19.61
2022-09-07T06:11:07.321Z,19.67
2022-09-07T06:16:09.524Z,19.7
2022-09-07T06:21:11.162Z,19.7
2022-09-07T06:26:12.962Z,19.77
2022-09-07T06:31:14.271Z,19.79
2022-09-07T06:36:15.819Z,19.79
2022-09-07T06:51:21.379Z,19.93
2022-09-07T06:51:27.694Z,19.94
2022-09-07T06:56:29.489Z,20.09
2022-09-07T07:01:30.786Z,20.37
2022-09-07T07:06:32.801Z,20.74
2022-09-07T07:11:34.786Z,21.21
2022-09-07T07:16:36.255Z,21.64
2022-09-07T07:21:49.359Z,22
2022-09-07T07:26:40.040Z,22.44
2022-09-07T07:31:42.024Z,22.92
2022-09-07T07:36:44.082Z,23.29
2022-09-07T07:46:47.249Z,24.69
2022-09-07T07:56:49.693Z,26.65
2022-09-07T08:01:51.732Z,26.07
2022-09-07T08:06:52.939Z,26.17
2022-09-07T08:11:54.661Z,26.5
2022-09-07T08:16:56.225Z,26.86
2022-09-07T08:21:57.506Z,27.3
2022-09-07T08:26:59.623Z,27.43
2022-09-07T08:32:01.432Z,27.04
2022-09-07T08:37:03.298Z,26.88
2022-09-07T08:42:04.746Z,26.85
2022-09-07T08:47:06.106Z,26.85
2022-09-07T08:52:07.683Z,26.79
2022-09-07T08:57:24.965Z,27.01
2022-09-07T09:02:28.285Z,27.25
2022-09-07T09:07:13.298Z,27.44
2022-09-07T09:12:14.805Z,27.42
2022-09-07T09:17:16.229Z,27.33
2022-09-07T09:22:18.394Z,27.33
2022-09-07T09:27:20.144Z,27.4
2022-09-07T09:32:22.252Z,27.97
2022-09-07T09:37:24.155Z,28.23
2022-09-07T09:42:25.960Z,28.62
2022-09-07T09:47:31.499Z,29.68
2022-09-07T09:52:31.971Z,30.82
2022-09-07T09:57:31.627Z,31.69
2022-09-07T10:07:35.524Z,32.55
2022-09-07T10:12:37.465Z,32.37
2022-09-07T10:17:39.027Z,32.57
2022-09-07T10:22:40.237Z,33.11
2022-09-07T10:27:41.694Z,33.36
2022-09-07T10:32:43.141Z,33.46
2022-09-07T10:37:44.325Z,33.62
2022-09-07T10:52:49.633Z,32.88
2022-09-07T11:07:54.915Z,32.2
2022-09-07T11:12:56.900Z,32.12
2022-09-07T11:33:02.598Z,31.51
2022-09-07T11:43:07.063Z,31.26
2022-09-07T11:48:07.359Z,31.08
2022-09-07T11:53:09.206Z,30.92
2022-09-07T11:58:11.207Z,30.65
2022-09-07T12:03:12.524Z,30.43
2022-09-07T12:08:13.692Z,30.16
2022-09-07T12:13:15.256Z,30.09
2022-09-07T12:18:17.294Z,30.01
2022-09-07T12:23:18.765Z,30.18
2022-09-07T12:28:22.086Z,30
2022-09-07T12:33:21.949Z,29.87
2022-09-07T12:38:23.542Z,29.55
2022-09-07T12:43:25.887Z,29.51
2022-09-07T12:48:27.244Z,29.37
2022-09-07T12:53:29.176Z,29.28
2022-09-07T12:58:31.212Z,29.33
2022-09-07T13:04:00.774Z,29.21
2022-09-07T13:08:35.064Z,28.9
2022-09-07T13:18:38.518Z,28.93
2022-09-07T13:23:40.300Z,29.04
2022-09-07T13:28:41.558Z,29.19
2022-09-07T13:33:43.149Z,29.21
2022-09-07T13:38:44.690Z,29.09
2022-09-07T13:43:46.647Z,29.07
2022-09-07T13:48:48.777Z,29.09
2022-09-07T13:53:50.737Z,29.17
2022-09-07T13:58:52.684Z,29.29
2022-09-07T14:03:54.210Z,29.28
2022-09-07T14:08:55.566Z,29.24
2022-09-07T14:13:57.511Z,29.25
2022-09-07T14:18:58.803Z,29.28
2022-09-07T14:24:00.817Z,29.25
2022-09-07T14:29:02.306Z,29.24
2022-09-07T14:34:03.697Z,29.24
2022-09-07T14:39:05.190Z,29.17
2022-09-07T14:44:06.932Z,29.01
2022-09-07T14:49:09.087Z,28.81
2022-09-07T14:54:11.147Z,28.67
2022-09-07T14:59:12.699Z,28.58
2022-09-07T15:04:14.090Z,28.62
2022-09-07T15:09:16.131Z,28.67
2022-09-07T15:14:17.905Z,28.63
2022-09-07T15:19:19.768Z,28.52
2022-09-07T15:24:21.241Z,28.46
2022-09-07T15:29:24.442Z,28.37
2022-09-07T15:34:25.453Z,28.38
2022-09-07T15:39:27.322Z,28.43
2022-09-07T15:44:28.904Z,28.42
2022-09-07T15:49:30.737Z,28.33
2022-09-07T15:54:34.997Z,28.2
2022-09-07T15:59:34.253Z,28.08
2022-09-07T16:04:38.547Z,27.98
2022-09-07T16:09:38.039Z,27.95
2022-09-07T16:14:39.768Z,28.01
2022-09-07T16:19:41.339Z,27.99
2022-09-07T16:24:43.047Z,27.89
2022-09-07T16:29:44.199Z,27.76
2022-09-07T16:34:46.275Z,27.62
2022-09-07T16:39:47.604Z,27.47
2022-09-07T16:44:48.982Z,27.39
2022-09-07T16:49:51.680Z,27.39
2022-09-07T16:54:52.633Z,27.31
2022-09-07T16:59:54.193Z,27.17
2022-09-07T17:04:55.937Z,27.04
2022-09-07T17:09:57.344Z,26.91
2022-09-07T17:14:59.042Z,26.73
2022-09-07T17:20:00.701Z,26.63
2022-09-07T17:25:02.233Z,26.6
2022-09-07T17:30:03.614Z,26.46
2022-09-07T17:35:05.507Z,26.29
2022-09-07T17:40:07.725Z,26.1
2022-09-07T17:45:09.117Z,25.96
2022-09-07T17:50:11.111Z,25.77
2022-09-07T17:55:12.715Z,25.67
2022-09-07T18:00:14.051Z,25.62
2022-09-07T18:05:16.070Z,25.48
2022-09-07T18:10:17.398Z,25.33
2022-09-07T18:15:19.165Z,25.19
2022-09-07T18:20:20.651Z,25.08
2022-09-07T18:25:22.334Z,24.94
2022-09-07T18:30:24.093Z,24.88
2022-09-07T18:35:25.443Z,24.9
2022-09-07T18:40:26.995Z,24.7
2022-09-07T18:45:28.617Z,24.62
2022-09-07T18:50:29.735Z,24.49
2022-09-07T18:55:32.329Z,24.35
2022-09-07T19:00:33.197Z,24.2
2022-09-07T19:05:51.262Z,24.02
2022-09-07T19:10:36.985Z,23.94
2022-09-07T19:15:38.591Z,23.74
2022-09-07T19:20:40.325Z,23.58
2022-09-07T19:25:41.588Z,23.43
2022-09-07T19:30:43.455Z,23.26
2022-09-07T19:35:45.274Z,23.12
2022-09-07T19:40:46.615Z,22.99
2022-09-07T19:45:48.172Z,22.98
2022-09-07T19:50:50.392Z,22.83
2022-09-07T19:55:51.608Z,22.72
2022-09-07T20:00:53.520Z,22.63
2022-09-07T20:05:54.993Z,22.51
2022-09-07T20:10:57.013Z,22.39
2022-09-07T20:15:58.897Z,22.29
2022-09-07T20:21:00.489Z,22.33
2022-09-07T20:26:02.635Z,22.32
2022-09-07T20:31:08.045Z,22.21
2022-09-07T20:36:05.850Z,22.14
2022-09-07T20:41:07.168Z,22.05
2022-09-07T20:46:08.511Z,21.96
2022-09-07T20:51:10.075Z,21.86
2022-09-07T20:56:12.292Z,21.85
2022-09-07T21:01:14.375Z,21.92
2022-09-07T21:06:15.750Z,21.86
2022-09-07T21:11:17.480Z,21.77
2022-09-07T21:16:19.550Z,21.71
2022-09-07T21:21:21.085Z,21.62
2022-09-07T21:26:22.934Z,21.52
2022-09-07T21:31:24.409Z,21.44
2022-09-07T21:36:25.715Z,21.41
2022-09-07T21:41:27.827Z,21.47
2022-09-07T21:46:29.437Z,21.36
2022-09-07T21:51:31.219Z,21.31
2022-09-07T21:56:32.479Z,21.23
2022-09-07T22:11:58.111Z,20.98
2022-09-07T22:16:40.007Z,20.96
2022-09-07T22:21:41.499Z,21.02
2022-09-07T22:26:42.845Z,20.98
2022-09-07T22:31:44.903Z,20.95
2022-09-07T22:36:45.949Z,20.93
2022-09-07T22:41:47.650Z,20.88
2022-09-07T22:46:49.085Z,20.83
2022-09-07T22:51:50.649Z,20.78
2022-09-07T22:56:52.083Z,20.91
2022-09-07T23:01:53.749Z,20.99
2022-09-07T23:06:55.646Z,20.94
2022-09-07T23:11:56.887Z,20.94
2022-09-07T23:16:58.135Z,20.86
2022-09-07T23:21:59.867Z,20.73
2022-09-07T23:27:01.415Z,20.64
2022-09-07T23:32:02.992Z,20.58
2022-09-07T23:37:05.106Z,20.6
2022-09-07T23:37:11.380Z,20.6
2022-09-07T23:42:12.931Z,20.52
2022-09-07T23:47:14.658Z,20.4
2022-09-07T23:52:16.584Z,20.12
2022-09-07T23:57:18.583Z,19.74
